Air Quality Table

TIMESTAMP NO2 SO2 O3 PM10 PM2.5 TEMP HUM AIRPRES WS WD NO
2022-11-26 10:00 19.1 µg/m3 0.06 µg/m3 53.42 µg/m3 24.23 µg/m3 5.97 µg/m3 16.9 °C 97.57 % 1,007.63 mbar 2.08 m/s 248.17 Deg 1.8 µg/m3
2022-11-26 09:00 12 µg/m3 0.05 µg/m3 66.2 µg/m3 23.74 µg/m3 5.53 µg/m3 18.93 °C 96.51 % 1,007.39 mbar 4.9 m/s 180.87 Deg 0.24 µg/m3
2022-11-26 08:00 10.16 µg/m3 0.01 µg/m3 69.68 µg/m3 23.8 µg/m3 7.41 µg/m3 19.06 °C 90.18 % 1,007.59 mbar 5.59 m/s 173 Deg 0.21 µg/m3
2022-11-26 07:00 19.04 µg/m3 0.06 µg/m3 62.31 µg/m3 12.54 µg/m3 11.08 µg/m3 18.83 °C 87.62 % 1,008.74 mbar 5.08 m/s 182.28 Deg 0.15 µg/m3
2022-11-26 06:00 16.82 µg/m3 0.07 µg/m3 64.01 µg/m3 13.08 µg/m3 6.5 µg/m3 18.49 °C 87.8 % 1,008.79 mbar 4.19 m/s 179.9 Deg 0.1 µg/m3
2022-11-26 05:00 17.65 µg/m3 0.04 µg/m3 60.84 µg/m3 17.62 µg/m3 6.48 µg/m3 18.07 °C 86.79 % 1,009.75 mbar 2.23 m/s 193.02 Deg 0.08 µg/m3
2022-11-26 04:00 12.94 µg/m3 0.16 µg/m3 64.2 µg/m3 19.45 µg/m3 7.2 µg/m3 17.74 °C 85.61 % 1,010.69 mbar 2.35 m/s 194.47 Deg 0.05 µg/m3
2022-11-26 03:00 4.15 µg/m3 0.09 µg/m3 66.79 µg/m3 16.4 µg/m3 8.32 µg/m3 17.28 °C 85.02 % 1,011.87 mbar 2.41 m/s 201.98 Deg -0.02 µg/m3
2022-11-26 02:00 15.84 µg/m3 0.09 µg/m3 58.51 µg/m3 20.45 µg/m3 9.57 µg/m3 17.13 °C 83.42 % 1,012.14 mbar 2.07 m/s 205.78 Deg 0.11 µg/m3
2022-11-26 01:00 20.01 µg/m3 0.16 µg/m3 53.99 µg/m3 31.78 µg/m3 10.19 µg/m3 16.84 °C 81.47 % 1,012.44 mbar 1.43 m/s 201.32 Deg 0.27 µg/m3
2022-11-26 00:00 49.51 µg/m3 0.22 µg/m3 28.13 µg/m3 44.84 µg/m3 13.22 µg/m3 16.97 °C 81.5 % 1,013.09 mbar 1.41 m/s 200.45 Deg 3.76 µg/m3
2022-11-25 23:00 57.68 µg/m3 0.38 µg/m3 22.92 µg/m3 59.7 µg/m3 21.22 µg/m3 16.83 °C 79.96 % 1,013.58 mbar 0.56 m/s 183.61 Deg 14.28 µg/m3
2022-11-25 22:00 54.61 µg/m3 0.38 µg/m3 28.54 µg/m3 83.4 µg/m3 17.52 µg/m3 16.69 °C 78.66 % 1,014.03 mbar 0.54 m/s 137.08 Deg 10.84 µg/m3
2022-11-25 21:00 77.29 µg/m3 0.7 µg/m3 10.1 µg/m3 76.79 µg/m3 17.27 µg/m3 16.73 °C 79.53 % 1,014.24 mbar 0.77 m/s 255.55 Deg 33.08 µg/m3
2022-11-25 20:00 83.25 µg/m3 0.77 µg/m3 5.88 µg/m3 73.62 µg/m3 9.69 µg/m3 16.79 °C 78.88 % 1,013.93 mbar 0.85 m/s 275.73 Deg 45.46 µg/m3
2022-11-25 19:00 89.75 µg/m3 0.76 µg/m3 3.87 µg/m3 38.57 µg/m3 9.79 µg/m3 16.87 °C 78.35 % 1,013.84 mbar 0.62 m/s 289.36 Deg 39.62 µg/m3
2022-11-25 18:00 59.08 µg/m3 0.23 µg/m3 23.14 µg/m3 32.37 µg/m3 15.47 µg/m3 17.3 °C 75.45 % 1,013.82 mbar 1 m/s 333.37 Deg 7.66 µg/m3
2022-11-25 17:00 31.53 µg/m3 0.14 µg/m3 51.28 µg/m3 29.13 µg/m3 6.68 µg/m3 18.04 °C 71.58 % 1,013.57 mbar 1.27 m/s 15.87 Deg 3.01 µg/m3
2022-11-25 16:00 16.2 µg/m3 0.11 µg/m3 72.31 µg/m3 24.87 µg/m3 6.35 µg/m3 18.78 °C 67.38 % 1,013.58 mbar 1.86 m/s 16.22 Deg 2.45 µg/m3
2022-11-25 15:00 10.64 µg/m3 0.08 µg/m3 78.08 µg/m3 19.94 µg/m3 8.44 µg/m3 19.11 °C 65.42 % 1,013.31 mbar 2.08 m/s 8.37 Deg 1.88 µg/m3
2022-11-25 14:00 10.03 µg/m3 0.1 µg/m3 77.38 µg/m3 29.03 µg/m3 7 µg/m3 19.35 °C 63.75 % 1,013.85 mbar 2.46 m/s 99.53 Deg 1.91 µg/m3
2022-11-25 13:00 9.95 µg/m3 0.13 µg/m3 74.98 µg/m3 32.68 µg/m3 7 µg/m3 19.13 °C 63.26 % 1,014.25 mbar 2.66 m/s 14.5 Deg 1.97 µg/m3
2022-11-25 12:00 16.05 µg/m3 0.14 µg/m3 67.5 µg/m3 33.33 µg/m3 8.71 µg/m3 19.11 °C 63.12 % 1,014.53 mbar 2.6 m/s 91.98 Deg 4.02 µg/m3
2022-11-25 11:00 20.41 µg/m3 0.2 µg/m3 61.01 µg/m3 43.69 µg/m3 13.25 µg/m3 19.08 °C 66.89 % 1,014.84 mbar 1.83 m/s 335.9 Deg 5.49 µg/m3
2022-11-25 10:00 32.38 µg/m3 0.31 µg/m3 47.44 µg/m3 60.97 µg/m3 12.56 µg/m3 18.2 °C 72.43 % 1,014.95 mbar 2.03 m/s 327.97 Deg 11.17 µg/m3
2022-11-25 09:00 55.65 µg/m3 0.54 µg/m3 19.8 µg/m3 58.12 µg/m3 9.36 µg/m3 16.72 °C 80.63 % 1,014.64 mbar 1.51 m/s 311.75 Deg 28.75 µg/m3
2022-11-25 08:00 68.44 µg/m3 0.59 µg/m3 8.06 µg/m3 38.48 µg/m3 6.09 µg/m3 15.23 °C 86.6 % 1,014.31 mbar 1.81 m/s 296.2 Deg 39.27 µg/m3
2022-11-25 07:00 59.62 µg/m3 0.32 µg/m3 12.83 µg/m3 31.28 µg/m3 6.35 µg/m3 15.09 °C 88.46 % 1,013.75 mbar 1.66 m/s 299.96 Deg 20.86 µg/m3
2022-11-25 06:00 35.37 µg/m3 0.13 µg/m3 30.62 µg/m3 24.46 µg/m3 6.03 µg/m3 15.33 °C 90.33 % 1,013.26 mbar 1.39 m/s 311.11 Deg 4.45 µg/m3
2022-11-25 05:00 11.07 µg/m3 0.07 µg/m3 51.49 µg/m3 19.59 µg/m3 7.84 µg/m3 15.14 °C 94.11 % 1,013.07 mbar 1.49 m/s 306.98 Deg 0.25 µg/m3
2022-11-25 04:00 7.58 µg/m3 0.11 µg/m3 55.98 µg/m3 17.16 µg/m3 12.24 µg/m3 15.24 °C 93.7 % 1,012.87 mbar 1.72 m/s 303.72 Deg 0.22 µg/m3
2022-11-25 03:00 5.74 µg/m3 0.07 µg/m3 57.17 µg/m3 17.37 µg/m3 7.16 µg/m3 15.35 °C 92.6 % 1,012.66 mbar 1.55 m/s 301.67 Deg -0 µg/m3
2022-11-25 02:00 6.83 µg/m3 0.06 µg/m3 59.34 µg/m3 22.7 µg/m3 8.32 µg/m3 15.83 °C 90.44 % 1,012.41 mbar 1.66 m/s 302.8 Deg -0 µg/m3
2022-11-25 01:00 9.68 µg/m3 0.08 µg/m3 60.48 µg/m3 27.6 µg/m3 9.55 µg/m3 16.16 °C 89.48 % 1,012.35 mbar 1.74 m/s 315.37 Deg 0.19 µg/m3
2022-11-25 00:00 8.04 µg/m3 0.04 µg/m3 63.44 µg/m3 41.04 µg/m3 12.89 µg/m3 16.31 °C 89.76 % 1,012.20 mbar 1.56 m/s 321.98 Deg 0.65 µg/m3
2022-11-24 23:00 14.14 µg/m3 0.07 µg/m3 59.43 µg/m3 44.47 µg/m3 18.6 µg/m3 16.63 °C 88.99 % 1,011.87 mbar 1.57 m/s 317.29 Deg 0.39 µg/m3
2022-11-24 22:00 13.13 µg/m3 0.06 µg/m3 63.58 µg/m3 38.6 µg/m3 8.33 µg/m3 16.9 °C 88.02 % 1,011.59 mbar 2.1 m/s 312.72 Deg 0.58 µg/m3
2022-11-24 21:00 17.26 µg/m3 0.11 µg/m3 63.94 µg/m3 46.67 µg/m3 12.62 µg/m3 17.17 °C 85.99 % 1,011.14 mbar 2.2 m/s 315.33 Deg 1.34 µg/m3
2022-11-24 20:00 21.9 µg/m3 0.09 µg/m3 63.34 µg/m3 40.65 µg/m3 7.82 µg/m3 17.45 °C 84.59 % 1,010.48 mbar 2.59 m/s 318.08 Deg 1.79 µg/m3
2022-11-24 19:00 22.7 µg/m3 0.06 µg/m3 61.58 µg/m3 32.84 µg/m3 7.99 µg/m3 17.69 °C 82.65 % 1,009.99 mbar 2.66 m/s 325.53 Deg 1.29 µg/m3
2022-11-24 18:00 23.3 µg/m3 0.06 µg/m3 62.27 µg/m3 34.14 µg/m3 6.44 µg/m3 18.05 °C 78.51 % 1,009.44 mbar 3.11 m/s 316.07 Deg 2.35 µg/m3
2022-11-24 17:00 19.64 µg/m3 0.08 µg/m3 65.39 µg/m3 27.41 µg/m3 5.16 µg/m3 18.69 °C 74.27 % 1,009.02 mbar 3.24 m/s 327.12 Deg 2.85 µg/m3
2022-11-24 16:00 15.07 µg/m3 0.06 µg/m3 70.01 µg/m3 15.19 µg/m3 5.99 µg/m3 19.46 °C 73.41 % 1,008.33 mbar 3.19 m/s 325.2 Deg 2.69 µg/m3
2022-11-24 15:00 13.23 µg/m3 0.03 µg/m3 71.37 µg/m3 10.74 µg/m3 7.74 µg/m3 20.02 °C 70.74 % 1,008.09 mbar 3.9 m/s 322.92 Deg 2.82 µg/m3
2022-11-24 14:00 12.28 µg/m3 0.07 µg/m3 71.32 µg/m3 15.21 µg/m3 8.09 µg/m3 20.17 °C 68.14 % 1,008.25 mbar 4.54 m/s 313.92 Deg 3.56 µg/m3
2022-11-24 13:00 12.98 µg/m3 0.09 µg/m3 64.38 µg/m3 23.43 µg/m3 6.08 µg/m3 20.27 °C 70.28 % 1,008.23 mbar 3.95 m/s 330.53 Deg 3.76 µg/m3
2022-11-24 12:00 12.79 µg/m3 0.07 µg/m3 63.05 µg/m3 24.89 µg/m3 8.48 µg/m3 19.94 °C 78.03 % 1,008.64 mbar 4.44 m/s 321.47 Deg 6.1 µg/m3
2022-11-24 11:00 15.28 µg/m3 0.09 µg/m3 55.34 µg/m3 30.23 µg/m3 11.27 µg/m3 20.01 °C 82.06 % 1,008.89 mbar 3.45 m/s 324.95 Deg 5.94 µg/m3
2022-11-24 10:00 15.53 µg/m3 0.14 µg/m3 48.83 µg/m3 45.35 µg/m3 15.8 µg/m3 19.58 °C 84.47 % 1,008.86 mbar 3.12 m/s 325.32 Deg 5.81 µg/m3
2022-11-24 09:00 19.99 µg/m3 0.09 µg/m3 42.21 µg/m3 36.08 µg/m3 12.53 µg/m3 18.98 °C 86.92 % 1,008.28 mbar 3.21 m/s 325.42 Deg 6.65 µg/m3
2022-11-24 08:00 25.34 µg/m3 0.08 µg/m3 36.36 µg/m3 23.17 µg/m3 17.73 µg/m3 18.46 °C 90.16 % 1,007.35 mbar 3.32 m/s 327.17 Deg 5.17 µg/m3
2022-11-24 07:00 19.78 µg/m3 0.03 µg/m3 41.07 µg/m3 19.52 µg/m3 5.26 µg/m3 18.4 °C 94.98 % 1,006.49 mbar 3.57 m/s 323.17 Deg 3.06 µg/m3
2022-11-24 06:00 9.74 µg/m3 0.05 µg/m3 51.32 µg/m3 20.85 µg/m3 6.47 µg/m3 18.64 °C 94.92 % 1,005.61 mbar 3.09 m/s 313.45 Deg 1.15 µg/m3
2022-11-24 05:00 4.48 µg/m3 0 µg/m3 55.77 µg/m3 27.02 µg/m3 7.09 µg/m3 18.53 °C 98.19 % 1,005.11 mbar 3.05 m/s 321.12 Deg 0.16 µg/m3
2022-11-24 04:00 4.28 µg/m3 0.1 µg/m3 55.35 µg/m3 17.31 µg/m3 6.64 µg/m3 18.19 °C 99.24 % 1,005.17 mbar 2.66 m/s 324.57 Deg 0.08 µg/m3
2022-11-24 03:00 5.91 µg/m3 -0.02 µg/m3 53.97 µg/m3 11.97 µg/m3 8.18 µg/m3 18.26 °C 97.29 % 1,005.02 mbar 2.89 m/s 326.85 Deg -0.01 µg/m3
2022-11-24 02:00 2.2 µg/m3 0.01 µg/m3 58.2 µg/m3 12.75 µg/m3 12.32 µg/m3 18.15 °C 99.34 % 1,004.86 mbar 3.59 m/s 309.2 Deg -0.05 µg/m3
2022-11-24 01:00 2.16 µg/m3 0.03 µg/m3 58.88 µg/m3 13.95 µg/m3 8.6 µg/m3 17.84 °C 99.3 % 1,004.95 mbar 3.36 m/s 307.67 Deg 0.03 µg/m3
2022-11-24 00:00 3.74 µg/m3 0.02 µg/m3 56.42 µg/m3 16.57 µg/m3 7.97 µg/m3 17.73 °C 99.98 % 1,005.28 mbar 2.31 m/s 305.72 Deg 0.08 µg/m3
2022-11-23 23:00 6.72 µg/m3 0.05 µg/m3 54.33 µg/m3 17.92 µg/m3 10.94 µg/m3 16.99 °C 99.9 % 1,005.32 mbar 2.52 m/s 298.88 Deg 1.2 µg/m3
2022-11-23 22:00 4.96 µg/m3 0.05 µg/m3 59.87 µg/m3 25.77 µg/m3 9.2 µg/m3 16.71 °C 99.19 % 1,005.33 mbar 3.52 m/s 300.67 Deg 0.51 µg/m3
2022-11-23 21:00 6.73 µg/m3 0.06 µg/m3 64.48 µg/m3 28.99 µg/m3 9.02 µg/m3 18.18 °C 90.9 % 1,005.03 mbar 4.42 m/s 297.78 Deg 0.54 µg/m3
2022-11-23 20:00 10.37 µg/m3 0.08 µg/m3 65.92 µg/m3 31.12 µg/m3 11.29 µg/m3 18.76 °C 79.7 % 1,004.62 mbar 3.99 m/s 305.3 Deg 0.91 µg/m3
2022-11-23 19:00 14.49 µg/m3 0.1 µg/m3 64.58 µg/m3 26.18 µg/m3 5.69 µg/m3 18.61 °C 76.31 % 1,004.38 mbar 3.18 m/s 296.42 Deg 1.48 µg/m3
2022-11-23 18:00 14.87 µg/m3 0.09 µg/m3 65.72 µg/m3 19.37 µg/m3 5.82 µg/m3 18.22 °C 77.34 % 1,004.22 mbar 3.52 m/s 297.37 Deg 1.41 µg/m3
2022-11-23 17:00 15.02 µg/m3 0.08 µg/m3 64.38 µg/m3 19.22 µg/m3 8.14 µg/m3 18.18 °C 76.99 % 1,003.76 mbar 3.85 m/s 305.18 Deg 2 µg/m3
2022-11-23 16:00 15.73 µg/m3 0.08 µg/m3 63.66 µg/m3 26.23 µg/m3 5.98 µg/m3 18.55 °C 74.38 % 1,003.35 mbar 4.08 m/s 297.47 Deg 3.1 µg/m3
2022-11-23 15:00 11.57 µg/m3 0.09 µg/m3 71.25 µg/m3 21.02 µg/m3 6.64 µg/m3 18.98 °C 70.89 % 1,002.99 mbar 5.18 m/s 294.75 Deg 2 µg/m3
2022-11-23 14:00 12.03 µg/m3 0.1 µg/m3 69.7 µg/m3 19.84 µg/m3 7.04 µg/m3 19.11 °C 69.62 % 1,003.20 mbar 5.19 m/s 293.68 Deg 2.45 µg/m3
2022-11-23 13:00 10.12 µg/m3 0.1 µg/m3 71.32 µg/m3 26.19 µg/m3 8.67 µg/m3 19.19 °C 64.9 % 1,003.40 mbar 5.68 m/s 288.4 Deg 2.83 µg/m3
2022-11-23 12:00 8.81 µg/m3 0.13 µg/m3 69.53 µg/m3 39.49 µg/m3 7.55 µg/m3 18.56 °C 69.73 % 1,003.83 mbar 4.89 m/s 306.53 Deg 2.11 µg/m3
2022-11-23 11:00 10.44 µg/m3 0.1 µg/m3 67.84 µg/m3 27.16 µg/m3 8 µg/m3 18.82 °C 66.15 % 1,004.09 mbar 4.66 m/s 298.77 Deg 2.77 µg/m3
2022-11-23 10:00 12.89 µg/m3 0.17 µg/m3 65.59 µg/m3 30.84 µg/m3 7.81 µg/m3 18.22 °C 62.4 % 1,004.48 mbar 4.8 m/s 300.95 Deg 2.8 µg/m3
2022-11-23 09:00 20.31 µg/m3 0.13 µg/m3 59.69 µg/m3 22.76 µg/m3 8.46 µg/m3 17.28 °C 66.1 % 1,004.27 mbar 3.55 m/s 302.6 Deg 4.87 µg/m3
2022-11-23 08:00 25.35 µg/m3 0.11 µg/m3 54.98 µg/m3 14.03 µg/m3 7.71 µg/m3 16.32 °C 70.92 % 1,003.89 mbar 3.41 m/s 306.57 Deg 4.38 µg/m3
2022-11-23 07:00 22.04 µg/m3 0.09 µg/m3 57.8 µg/m3 18.55 µg/m3 5.34 µg/m3 16.03 °C 68.45 % 1,003.60 mbar 2.99 m/s 304.57 Deg 2.86 µg/m3
2022-11-23 06:00 10.06 µg/m3 0.07 µg/m3 68.89 µg/m3 13.56 µg/m3 4.55 µg/m3 15.88 °C 65.98 % 1,003.63 mbar 2.93 m/s 307.58 Deg 0.68 µg/m3
2022-11-23 05:00 3.47 µg/m3 0.05 µg/m3 72.6 µg/m3 10.63 µg/m3 4.66 µg/m3 15.86 °C 68.21 % 1,003.82 mbar 2.81 m/s 304.85 Deg 0.08 µg/m3
2022-11-23 04:00 2.32 µg/m3 0.2 µg/m3 70.65 µg/m3 10.2 µg/m3 6.45 µg/m3 15.41 °C 73.43 % 1,004.03 mbar 2.89 m/s 301.25 Deg -0.04 µg/m3
2022-11-23 03:00 1.98 µg/m3 0.06 µg/m3 71.12 µg/m3 10.14 µg/m3 6.83 µg/m3 14.68 °C 84.4 % 1,004.37 mbar 2.35 m/s 307.65 Deg -0.1 µg/m3
2022-11-23 02:00 1.45 µg/m3 0.03 µg/m3 75.39 µg/m3 13.33 µg/m3 7.3 µg/m3 14.62 °C 83.93 % 1,004.75 mbar 3.27 m/s 301.95 Deg -0.08 µg/m3
2022-11-23 01:00 1.93 µg/m3 0.04 µg/m3 76.39 µg/m3 19.77 µg/m3 6.95 µg/m3 14.66 °C 77.17 % 1,005.26 mbar 3.29 m/s 302.27 Deg -0.06 µg/m3
2022-11-23 00:00 2.6 µg/m3 0.06 µg/m3 76.36 µg/m3 21.08 µg/m3 6.45 µg/m3 16.63 °C 63.42 % 1,005.27 mbar 4.68 m/s 297.08 Deg 0.01 µg/m3
2022-11-22 23:00 3.49 µg/m3 0.04 µg/m3 76.43 µg/m3 24.9 µg/m3 6.28 µg/m3 16.84 °C 63.57 % 1,005.17 mbar 3.69 m/s 292.7 Deg 0.05 µg/m3
2022-11-22 22:00 4.46 µg/m3 0.08 µg/m3 76.79 µg/m3 20.66 µg/m3 7.62 µg/m3 16.95 °C 63.01 % 1,005.25 mbar 3.41 m/s 295.17 Deg 0.17 µg/m3
2022-11-22 21:00 5.27 µg/m3 0.06 µg/m3 77.6 µg/m3 15.79 µg/m3 9.71 µg/m3 17.05 °C 59.53 % 1,004.80 mbar 4.62 m/s 292.48 Deg 0.25 µg/m3
2022-11-22 20:00 9.87 µg/m3 0.03 µg/m3 72.23 µg/m3 17.61 µg/m3 7.81 µg/m3 17 °C 62.24 % 1,004.57 mbar 3.64 m/s 296.5 Deg 0.72 µg/m3
2022-11-22 19:00 10.38 µg/m3 0.1 µg/m3 71.03 µg/m3 30.4 µg/m3 8.39 µg/m3 16.96 °C 62.25 % 1,004.33 mbar 3.96 m/s 301.73 Deg 1.83 µg/m3
2022-11-22 18:00 14.97 µg/m3 0.06 µg/m3 67.23 µg/m3 27.44 µg/m3 10.19 µg/m3 16.99 °C 63.7 % 1,004.08 mbar 3.88 m/s 309.05 Deg 2.01 µg/m3
2022-11-22 17:00 15.49 µg/m3 0.05 µg/m3 66.29 µg/m3 28.28 µg/m3 13.84 µg/m3 16.93 °C 68.86 % 1,003.45 mbar 3.38 m/s 310.48 Deg 1.96 µg/m3
2022-11-22 16:00 14.57 µg/m3 0.07 µg/m3 69.51 µg/m3 36.13 µg/m3 10.27 µg/m3 18.13 °C 63.54 % 1,002.72 mbar 5.28 m/s 306.4 Deg 2.62 µg/m3
2022-11-22 15:00 12.35 µg/m3 0.07 µg/m3 69.42 µg/m3 59.03 µg/m3 6.55 µg/m3 18.84 °C 62.17 % 1,001.97 mbar 5.67 m/s 292.57 Deg 1.67 µg/m3
2022-11-22 14:00 12.37 µg/m3 0.07 µg/m3 66.6 µg/m3 53.84 µg/m3 5.88 µg/m3 18.48 °C 73.79 % 1,002.24 mbar 4.93 m/s 292.72 Deg 1.99 µg/m3
2022-11-22 13:00 6.85 µg/m3 0.03 µg/m3 75.92 µg/m3 44.48 µg/m3 8.22 µg/m3 19.76 °C 63.93 % 1,002.20 mbar 6.91 m/s 278.67 Deg 0.93 µg/m3
2022-11-22 12:00 5.9 µg/m3 0.03 µg/m3 79.55 µg/m3 44.86 µg/m3 6.2 µg/m3 19.95 °C 67.98 % 1,002.55 mbar 8 m/s 260.12 Deg 1.14 µg/m3
2022-11-22 11:00 6.12 µg/m3 0.02 µg/m3 78.21 µg/m3 48.56 µg/m3 6.1 µg/m3 19.65 °C 66.38 % 1,002.71 mbar 8.13 m/s 260.62 Deg 1.2 µg/m3
2022-11-22 10:00 5.44 µg/m3 0.03 µg/m3 79.38 µg/m3 40.5 µg/m3 4.95 µg/m3 19.27 °C 68.04 % 1,002.35 mbar 7.74 m/s 246 Deg 1.31 µg/m3
2022-11-22 09:00 7.31 µg/m3 0.05 µg/m3 76.24 µg/m3 31.25 µg/m3 5.54 µg/m3 18.68 °C 70.06 % 1,002.84 mbar 6.38 m/s 236.48 Deg 1.61 µg/m3
2022-11-22 08:00 7.47 µg/m3 0.06 µg/m3 76.61 µg/m3 17.25 µg/m3 5.24 µg/m3 18.1 °C 67.88 % 1,003.27 mbar 6.39 m/s 235.68 Deg 1.55 µg/m3
2022-11-22 07:00 6.84 µg/m3 0.06 µg/m3 79.72 µg/m3 15 µg/m3 6.74 µg/m3 17.83 °C 65.71 % 1,004.24 mbar 5.54 m/s 233.63 Deg 1.04 µg/m3
2022-11-22 06:00 4.64 µg/m3 0.05 µg/m3 83.32 µg/m3 10.53 µg/m3 6.29 µg/m3 17.78 °C 61.19 % 1,004.72 mbar 5.11 m/s 235.32 Deg 0.69 µg/m3
2022-11-22 05:00 1.93 µg/m3 0.04 µg/m3 85.52 µg/m3 8.44 µg/m3 6.48 µg/m3 17.97 °C 57.43 % 1,005.38 mbar 4.69 m/s 233.78 Deg 0.01 µg/m3
2022-11-22 04:00 2.02 µg/m3 0.13 µg/m3 86.7 µg/m3 9.64 µg/m3 5.76 µg/m3 18.3 °C 56.88 % 1,006.53 mbar 4.7 m/s 237.43 Deg 0.01 µg/m3
2022-11-22 03:00 1.3 µg/m3 0.04 µg/m3 84.85 µg/m3 9.4 µg/m3 6.34 µg/m3 18.57 °C 59.55 % 1,007.40 mbar 4.75 m/s 245.53 Deg -0.1 µg/m3
2022-11-22 02:00 1.47 µg/m3 0.03 µg/m3 84.63 µg/m3 10.17 µg/m3 6.15 µg/m3 18.27 °C 60.1 % 1,007.94 mbar 3.65 m/s 248.03 Deg -0.08 µg/m3
2022-11-22 01:00 1.62 µg/m3 0.07 µg/m3 83.19 µg/m3 9.25 µg/m3 5.99 µg/m3 17.93 °C 63.93 % 1,008.98 mbar 3.39 m/s 261.17 Deg -0.12 µg/m3
2022-11-22 00:00 3.65 µg/m3 0.04 µg/m3 81.9 µg/m3 10.95 µg/m3 4.73 µg/m3 17.51 °C 66.3 % 1,009.64 mbar 2.97 m/s 255.5 Deg -0.07 µg/m3
2022-11-21 23:00 3.69 µg/m3 0.02 µg/m3 79.34 µg/m3 15.03 µg/m3 5.23 µg/m3 17.34 °C 69.1 % 1,010.08 mbar 3.01 m/s 259.37 Deg 0 µg/m3
2022-11-21 22:00 4.84 µg/m3 0.06 µg/m3 77.75 µg/m3 15.37 µg/m3 5.77 µg/m3 17.4 °C 69.93 % 1,010.33 mbar 2.91 m/s 257.8 Deg 0.02 µg/m3
2022-11-21 21:00 10.41 µg/m3 0.05 µg/m3 73.19 µg/m3 17.59 µg/m3 7.08 µg/m3 17.33 °C 72.7 % 1,010.20 mbar 2.61 m/s 266.02 Deg 0.15 µg/m3
2022-11-21 20:00 18.68 µg/m3 0.09 µg/m3 63.37 µg/m3 14.49 µg/m3 9.11 µg/m3 17.16 °C 73.48 % 1,010.29 mbar 2.02 m/s 279.23 Deg 1.05 µg/m3
2022-11-21 19:00 22.21 µg/m3 0.05 µg/m3 59.49 µg/m3 14.78 µg/m3 5.34 µg/m3 16.96 °C 74.63 % 1,010.55 mbar 2.5 m/s 290.33 Deg 1.58 µg/m3
2022-11-21 18:00 26.6 µg/m3 0.12 µg/m3 57.18 µg/m3 18.77 µg/m3 5.29 µg/m3 17.24 °C 75.46 % 1,010.35 mbar 2.64 m/s 299.82 Deg 1.88 µg/m3
2022-11-21 17:00 20.77 µg/m3 0.07 µg/m3 63.63 µg/m3 16.2 µg/m3 4.91 µg/m3 17.78 °C 73.6 % 1,010.11 mbar 3.07 m/s 306.68 Deg 2.46 µg/m3
2022-11-21 16:00 24.84 µg/m3 0.13 µg/m3 58.43 µg/m3 20.75 µg/m3 6.33 µg/m3 17.76 °C 78.93 % 1,010.19 mbar 2.71 m/s 315.52 Deg 4.11 µg/m3
2022-11-21 15:00 20.3 µg/m3 0.09 µg/m3 62.38 µg/m3 19.76 µg/m3 6.53 µg/m3 16.89 °C 87.28 % 1,010.33 mbar 3.17 m/s 323.05 Deg 3.49 µg/m3
2022-11-21 14:00 13.08 µg/m3 0.1 µg/m3 68.83 µg/m3 20.17 µg/m3 9.45 µg/m3 18.17 °C 76.71 % 1,010.27 mbar 3.69 m/s 306.42 Deg 2.56 µg/m3
2022-11-21 13:00 20.66 µg/m3 0.1 µg/m3 61.38 µg/m3 25.41 µg/m3 11.54 µg/m3 16.28 °C 91.59 % 1,010.77 mbar 3.17 m/s 329.27 Deg 4 µg/m3
2022-11-21 12:00 20.05 µg/m3 0.13 µg/m3 61.57 µg/m3 39.61 µg/m3 9.49 µg/m3 16.82 °C 86.1 % 1,011.38 mbar 3.1 m/s 328.07 Deg 4 µg/m3
2022-11-21 11:00 19.71 µg/m3 0.12 µg/m3 63 µg/m3 36.23 µg/m3 8.16 µg/m3 16.85 °C 79.8 % 1,011.47 mbar 2.76 m/s 314.68 Deg 4.77 µg/m3
2022-11-21 10:00 17.94 µg/m3 0.11 µg/m3 65.39 µg/m3 25.81 µg/m3 12.58 µg/m3 18.21 °C 55.85 % 1,011.04 mbar 3.28 m/s 323.38 Deg 3.38 µg/m3
2022-11-21 09:00 27.26 µg/m3 0.09 µg/m3 56.17 µg/m3 23.54 µg/m3 3.88 µg/m3 17.29 °C 57.67 % 1,010.70 mbar 3.39 m/s 325.7 Deg 4.8 µg/m3
2022-11-21 08:00 31.66 µg/m3 0.11 µg/m3 50.03 µg/m3 18.28 µg/m3 4.89 µg/m3 16.4 °C 66.05 % 1,010.21 mbar 3.03 m/s 324.28 Deg 4.64 µg/m3
2022-11-21 07:00 24.12 µg/m3 0.12 µg/m3 55.76 µg/m3 12.33 µg/m3 5.47 µg/m3 15.7 °C 81.72 % 1,009.69 mbar 3.1 m/s 329.88 Deg 2.68 µg/m3
2022-11-21 06:00 15.15 µg/m3 0.04 µg/m3 62.92 µg/m3 12.66 µg/m3 5.98 µg/m3 15.45 °C 83.06 % 1,009.12 mbar 2.66 m/s 331.47 Deg 1.04 µg/m3
2022-11-21 05:00 9.14 µg/m3 0.03 µg/m3 65.91 µg/m3 14.21 µg/m3 5.53 µg/m3 15.71 °C 76.36 % 1,008.61 mbar 1.75 m/s 315.44 Deg 0.12 µg/m3
2022-11-21 04:00 2.98 µg/m3 0.12 µg/m3 74.65 µg/m3 18.26 µg/m3 6.88 µg/m3 15.43 °C 77.45 % 1,008.34 mbar 2.23 m/s 317.17 Deg -0.03 µg/m3
2022-11-21 03:00 1.62 µg/m3 0.01 µg/m3 76.81 µg/m3 15.95 µg/m3 7.66 µg/m3 16.08 °C 76.83 % 1,008.17 mbar 2.76 m/s 317.57 Deg -0.14 µg/m3
2022-11-21 02:00 2.04 µg/m3 0.01 µg/m3 78.37 µg/m3 15.84 µg/m3 5.29 µg/m3 15.97 °C 73.48 % 1,008.30 mbar 3.13 m/s 309.53 Deg -0.12 µg/m3
2022-11-21 01:00 2.13 µg/m3 0.04 µg/m3 76.35 µg/m3 19.8 µg/m3 5.73 µg/m3 16.26 °C 75.39 % 1,008.38 mbar 3.36 m/s 322.47 Deg -0.09 µg/m3
2022-11-21 00:00 2.73 µg/m3 0.03 µg/m3 76.51 µg/m3 30.81 µg/m3 5.11 µg/m3 16.86 °C 71.41 % 1,008.28 mbar 3.58 m/s 307.28 Deg 0 µg/m3
2022-11-20 23:00 5.05 µg/m3 0.05 µg/m3 72.34 µg/m3 25.05 µg/m3 7.34 µg/m3 16.78 °C 70.89 % 1,008.00 mbar 3.03 m/s 315.25 Deg 0.32 µg/m3
2022-11-20 22:00 5.09 µg/m3 0.03 µg/m3 72.74 µg/m3 25.94 µg/m3 11.79 µg/m3 17.27 °C 66.13 % 1,007.38 mbar 3.25 m/s 318.32 Deg 0.15 µg/m3
2022-11-20 21:00 7.64 µg/m3 0.05 µg/m3 72.02 µg/m3 23.62 µg/m3 10.01 µg/m3 17.2 °C 70.16 % 1,006.63 mbar 3.12 m/s 320.83 Deg 0.86 µg/m3
2022-11-20 20:00 9.51 µg/m3 0.04 µg/m3 69.91 µg/m3 10.89 µg/m3 4.65 µg/m3 16.74 °C 73.55 % 1,006.11 mbar 3.06 m/s 305.1 Deg 0.74 µg/m3
2022-11-20 19:00 12.6 µg/m3 0.07 µg/m3 67.76 µg/m3 10.28 µg/m3 4.96 µg/m3 16.61 °C 73.66 % 1,005.41 mbar 3.26 m/s 307.88 Deg 1.88 µg/m3
2022-11-20 18:00 10.58 µg/m3 0.01 µg/m3 69.93 µg/m3 11.9 µg/m3 6.21 µg/m3 15.62 °C 77.97 % 1,004.62 mbar 2.97 m/s 308.97 Deg 0.66 µg/m3
2022-11-20 17:00 7.24 µg/m3 0.01 µg/m3 74.94 µg/m3 12.2 µg/m3 5.69 µg/m3 16.13 °C 76.22 % 1,003.98 mbar 4.33 m/s 300.72 Deg 0.76 µg/m3
2022-11-20 16:00 7.39 µg/m3 0.02 µg/m3 73.88 µg/m3 19.34 µg/m3 7.02 µg/m3 16.23 °C 78.21 % 1,003.35 mbar 3.72 m/s 295.15 Deg 0.69 µg/m3
2022-11-20 15:00 5.48 µg/m3 -0.03 µg/m3 74.01 µg/m3 20.81 µg/m3 6.67 µg/m3 16.56 °C 78.83 % 1,002.87 mbar 4.32 m/s 290.22 Deg 0.66 µg/m3
2022-11-20 14:00 6.46 µg/m3 -0.04 µg/m3 72.12 µg/m3 30.87 µg/m3 9.46 µg/m3 16.23 °C 81.31 % 1,003.06 mbar 3.45 m/s 280.35 Deg 0.84 µg/m3
2022-11-20 13:00 8.83 µg/m3 0.01 µg/m3 74.04 µg/m3 48.21 µg/m3 10.41 µg/m3 16.46 °C 75.8 % 1,003.26 mbar 3.7 m/s 295.72 Deg 1.76 µg/m3
2022-11-20 12:00 9.38 µg/m3 0.02 µg/m3 76.82 µg/m3 69.43 µg/m3 13.98 µg/m3 12.63 °C 95.88 % 1,004.05 mbar 3.51 m/s 305.48 Deg 1.24 µg/m3
2022-11-20 11:00 8.97 µg/m3 -0.01 µg/m3 71.24 µg/m3 102.48 µg/m3 23.54 µg/m3 16.58 °C 83.99 % 1,002.92 mbar 4.81 m/s 325.5 Deg 1.27 µg/m3
2022-11-20 10:00 9.14 µg/m3 -0 µg/m3 67.21 µg/m3 134.08 µg/m3 25.09 µg/m3 18.14 °C 79.38 % 1,002.31 mbar 3.8 m/s 312.13 Deg 1.21 µg/m3
2022-11-20 09:00 5.09 µg/m3 -0.03 µg/m3 70.22 µg/m3 129.49 µg/m3 23.45 µg/m3 19.8 °C 60.9 % 1,001.27 mbar 4.89 m/s 248.63 Deg 0.74 µg/m3
2022-11-20 08:00 4.4 µg/m3 0.01 µg/m3 70.69 µg/m3 46.64 µg/m3 8.45 µg/m3 19.55 °C 69.54 % 1,001.12 mbar 6.39 m/s 217.35 Deg 0.19 µg/m3
2022-11-20 07:00 26.91 µg/m3 0.03 µg/m3 33.89 µg/m3 17.17 µg/m3 4.97 µg/m3 18.03 °C 89.81 % 1,001.19 mbar 1.66 m/s 161.05 Deg 0.52 µg/m3
2022-11-20 06:00 23.33 µg/m3 0.01 µg/m3 37.35 µg/m3 16.16 µg/m3 5.08 µg/m3 17.95 °C 88.94 % 1,001.87 mbar 0.7 m/s 297.68 Deg 0.63 µg/m3
2022-11-20 05:00 12.2 µg/m3 -0.02 µg/m3 46.9 µg/m3 23.18 µg/m3 4.81 µg/m3 18.01 °C 90.04 % 1,002.42 mbar 1.15 m/s 307.57 Deg 0.26 µg/m3
2022-11-20 04:00 11.48 µg/m3 0.09 µg/m3 50.58 µg/m3 24.73 µg/m3 6.11 µg/m3 18.44 °C 88.94 % 1,002.45 mbar 1.15 m/s 309 Deg 0.11 µg/m3
2022-11-20 03:00 14.55 µg/m3 -0.06 µg/m3 55.92 µg/m3 36.72 µg/m3 8.46 µg/m3 18.99 °C 85.44 % 1,002.85 mbar 1.36 m/s 334.73 Deg 0.1 µg/m3
2022-11-20 02:00 16.21 µg/m3 -0.05 µg/m3 53.39 µg/m3 50.24 µg/m3 12.45 µg/m3 19.27 °C 85.27 % 1,003.38 mbar 1.81 m/s 345.25 Deg 0.12 µg/m3
2022-11-20 01:00 7.14 µg/m3 -0.05 µg/m3 67.24 µg/m3 84.04 µg/m3 19.09 µg/m3 19.44 °C 85.68 % 1,003.48 mbar 2.09 m/s 351.08 Deg 0.07 µg/m3
2022-11-20 00:00 11.98 µg/m3 -0.03 µg/m3 58.46 µg/m3 110.99 µg/m3 27.76 µg/m3 20.24 °C 88.94 % 1,003.81 mbar 2.03 m/s 348.73 Deg 0.35 µg/m3
2022-11-19 23:00 8.4 µg/m3 -0.04 µg/m3 48.42 µg/m3 127.65 µg/m3 29.47 µg/m3 21.26 °C 79.64 % 1,003.78 mbar 1.82 m/s 302.63 Deg 0.7 µg/m3
2022-11-19 22:00 4.38 µg/m3 -0.05 µg/m3 57.14 µg/m3 125.75 µg/m3 31.05 µg/m3 22.19 °C 78.35 % 1,003.49 mbar 3.08 m/s 279.25 Deg 0.3 µg/m3
2022-11-19 21:00 4.25 µg/m3 -0.05 µg/m3 65.7 µg/m3 90.83 µg/m3 12.17 µg/m3 22.47 °C 80.86 % 1,002.99 mbar 3.14 m/s 235.6 Deg 0.17 µg/m3
2022-11-19 20:00 5.58 µg/m3 -0.08 µg/m3 71.45 µg/m3 58.55 µg/m3 9.63 µg/m3 22.54 °C 77.98 % 1,002.75 mbar 3.74 m/s 230.8 Deg 0.32 µg/m3
2022-11-19 19:00 8.45 µg/m3 -0.08 µg/m3 82.07 µg/m3 45.84 µg/m3 7.06 µg/m3 22.39 °C 86.81 % 1,002.34 mbar 4.56 m/s 208.32 Deg 0.12 µg/m3
2022-11-19 18:00 6.87 µg/m3 -0.04 µg/m3 73.31 µg/m3 38.51 µg/m3 7.42 µg/m3 22.28 °C 87.29 % 1,002.26 mbar 4.06 m/s 201.42 Deg 0.08 µg/m3
2022-11-19 17:00 5.47 µg/m3 -0.04 µg/m3 75.94 µg/m3 42.21 µg/m3 6.84 µg/m3 22.24 °C 87.89 % 1,002.05 mbar 4.32 m/s 198.73 Deg 0.09 µg/m3
2022-11-19 16:00 4.46 µg/m3 -0.03 µg/m3 68 µg/m3 23.67 µg/m3 6.49 µg/m3 22.69 °C 88.57 % 1,002.07 mbar 4.17 m/s 201.58 Deg 0.34 µg/m3
2022-11-19 15:00 3.35 µg/m3 -0.07 µg/m3 62.73 µg/m3 23.95 µg/m3 6.73 µg/m3 22.92 °C 87.39 % 1,002.42 mbar 4.35 m/s 213.05 Deg 0.35 µg/m3
2022-11-19 14:00 3.58 µg/m3 -0.06 µg/m3 61.19 µg/m3 21.69 µg/m3 8.3 µg/m3 23.07 °C 84.43 % 1,002.56 mbar 4.63 m/s 216.27 Deg 0.5 µg/m3
2022-11-19 13:00 4.73 µg/m3 -0.01 µg/m3 62.17 µg/m3 29.77 µg/m3 9.86 µg/m3 23.32 °C 85.5 % 1,002.74 mbar 4.78 m/s 227.1 Deg 1.35 µg/m3
2022-11-19 12:00 9.72 µg/m3 -0.01 µg/m3 71.14 µg/m3 49.27 µg/m3 14.52 µg/m3 23.42 °C 85.42 % 1,003.16 mbar 5.09 m/s 221.9 Deg 2.52 µg/m3

It is to be noted that the data is provisional and subject to quality assurance procedures. For validated data kindly refer your request to contact.air@era.org.mt